createdAt,value
2022-09-30T00:01:52.758Z,83.99
2022-09-30T00:04:23.210Z,84.13
2022-09-30T00:06:52.929Z,84.24
2022-09-30T00:09:22.112Z,84.37
2022-09-30T00:11:50.953Z,84.38
2022-09-30T00:14:22.533Z,84.37
2022-09-30T00:16:51.189Z,84.36
2022-09-30T00:19:19.365Z,84.50
2022-09-30T00:21:47.392Z,84.66
2022-09-30T00:24:15.618Z,84.50
2022-09-30T00:26:43.586Z,84.51
2022-09-30T00:29:12.073Z,84.50
2022-09-30T00:31:40.364Z,84.61
2022-09-30T00:34:08.855Z,84.76
2022-09-30T00:36:49.903Z,84.86
2022-09-30T00:39:21.357Z,84.63
2022-09-30T00:41:53.856Z,84.53
2022-09-30T00:44:47.379Z,84.61
2022-09-30T00:47:21.861Z,84.60
2022-09-30T00:49:52.029Z,84.55
2022-09-30T00:52:20.615Z,84.56
2022-09-30T00:54:48.528Z,84.59
2022-09-30T00:57:18.290Z,84.82
2022-09-30T00:59:51.790Z,84.76
2022-09-30T01:02:20.547Z,84.64
2022-09-30T01:04:48.604Z,84.91
2022-09-30T01:07:17.232Z,84.88
2022-09-30T01:09:45.624Z,84.87
2022-09-30T01:12:18.649Z,84.87
2022-09-30T01:14:53.300Z,85.10
2022-09-30T01:17:37.071Z,85.29
2022-09-30T01:20:14.651Z,85.30
2022-09-30T01:22:42.622Z,85.41
2022-09-30T01:25:32.262Z,85.26
2022-09-30T01:28:20.956Z,85.70
2022-09-30T01:30:57.401Z,85.73
2022-09-30T01:33:40.643Z,85.72
2022-09-30T01:36:45.755Z,86.11
2022-09-30T01:39:47.436Z,86.10
2022-09-30T01:42:53.530Z,86.07
2022-09-30T01:45:42.881Z,86.35
2022-09-30T01:48:26.120Z,86.15
2022-09-30T01:51:01.791Z,85.75
2022-09-30T01:53:36.034Z,85.81
2022-09-30T01:56:18.936Z,85.76
2022-09-30T01:58:58.995Z,86.13
2022-09-30T02:01:34.544Z,86.14
2022-09-30T02:04:09.805Z,86.42
2022-09-30T02:06:43.580Z,86.20
2022-09-30T02:09:17.235Z,86.18
2022-09-30T02:11:45.718Z,86.37
2022-09-30T02:14:20.636Z,86.17
2022-09-30T02:16:57.999Z,86.59
2022-09-30T02:19:38.151Z,86.40
2022-09-30T02:22:20.385Z,86.41
2022-09-30T02:24:53.059Z,86.33
2022-09-30T02:27:30.653Z,86.35
2022-09-30T02:30:04.098Z,86.56
2022-09-30T02:32:38.001Z,86.70
2022-09-30T02:35:27.017Z,86.48
2022-09-30T02:38:05.748Z,86.36
2022-09-30T02:40:48.267Z,86.45
2022-09-30T02:43:19.110Z,86.60
2022-09-30T02:45:54.111Z,86.28
2022-09-30T02:48:52.978Z,86.42
2022-09-30T02:52:02.146Z,86.28
2022-09-30T02:54:34.213Z,86.39
2022-09-30T02:57:02.176Z,86.18
2022-09-30T02:59:30.342Z,86.17
2022-09-30T03:01:58.781Z,86.09
2022-09-30T03:04:31.515Z,85.85
2022-09-30T03:06:59.989Z,85.47
2022-09-30T03:09:28.562Z,85.62
2022-09-30T03:12:17.119Z,85.37
2022-09-30T03:15:05.477Z,85.45
2022-09-30T03:17:48.584Z,85.93
2022-09-30T03:20:28.715Z,85.75
2022-09-30T03:23:19.855Z,86.11
2022-09-30T03:26:07.145Z,86.35
2022-09-30T03:28:49.071Z,86.09
2022-09-30T03:31:33.483Z,86.28
2022-09-30T03:34:17.680Z,86.56
2022-09-30T03:37:04.342Z,86.32
2022-09-30T03:40:01.434Z,86.36
2022-09-30T03:42:38.281Z,86.43
2022-09-30T03:45:30.742Z,86.64
2022-09-30T03:48:03.796Z,86.51
2022-09-30T03:50:35.976Z,86.56
2022-09-30T03:53:09.505Z,87.02
2022-09-30T03:55:47.883Z,87.02
2022-09-30T03:58:17.899Z,86.90
2022-09-30T04:00:50.278Z,86.48
2022-09-30T04:03:19.794Z,86.58
2022-09-30T04:05:48.429Z,86.66
2022-09-30T04:08:17.299Z,86.80
2022-09-30T04:10:45.976Z,86.85
2022-09-30T04:13:13.949Z,87.01
2022-09-30T04:15:42.408Z,86.99
2022-09-30T04:18:10.504Z,86.92
2022-09-30T04:20:38.653Z,87.11
2022-09-30T04:23:06.632Z,87.29
2022-09-30T04:25:34.685Z,87.59
2022-09-30T04:28:02.764Z,87.56
2022-09-30T04:30:33.564Z,87.62
2022-09-30T04:33:01.867Z,87.72
2022-09-30T04:35:30.234Z,87.55
2022-09-30T04:37:58.248Z,87.50
2022-09-30T04:40:26.392Z,87.58
2022-09-30T04:42:58.319Z,87.53
2022-09-30T04:45:26.578Z,87.23
2022-09-30T04:47:54.694Z,87.52
2022-09-30T04:50:23.073Z,87.80
2022-09-30T04:52:51.217Z,87.86
2022-09-30T04:55:19.850Z,88.11
2022-09-30T04:57:49.634Z,87.97
2022-09-30T05:00:17.727Z,87.94
2022-09-30T05:02:45.646Z,88.12
2022-09-30T05:05:13.892Z,88.07
2022-09-30T05:07:41.802Z,88.10
2022-09-30T05:10:11.333Z,88.27
2022-09-30T05:12:42.792Z,88.25
2022-09-30T05:15:11.679Z,88.53
2022-09-30T05:17:39.853Z,88.20
2022-09-30T05:20:10.960Z,87.86
2022-09-30T05:22:38.941Z,87.42
2022-09-30T05:25:07.821Z,86.95
2022-09-30T05:27:36.116Z,86.96
2022-09-30T05:30:06.790Z,87.15
2022-09-30T05:32:34.912Z,87.00
2022-09-30T05:35:03.713Z,87.13
2022-09-30T05:37:31.709Z,86.85
2022-09-30T05:39:59.615Z,86.96
2022-09-30T05:42:27.561Z,87.21
2022-09-30T05:44:55.428Z,87.13
2022-09-30T05:47:24.183Z,86.56
2022-09-30T05:49:56.010Z,86.57
2022-09-30T05:52:24.344Z,86.44
2022-09-30T05:54:52.325Z,85.95
2022-09-30T05:57:21.255Z,85.81
2022-09-30T05:59:49.234Z,85.75
2022-09-30T06:02:17.357Z,85.59
2022-09-30T06:04:45.319Z,85.19
2022-09-30T06:07:14.284Z,84.70
2022-09-30T06:09:42.852Z,84.53
2022-09-30T06:12:11.108Z,84.48
2022-09-30T06:14:39.077Z,84.46
2022-09-30T06:17:07.148Z,84.54
2022-09-30T06:19:35.218Z,84.13
2022-09-30T06:22:03.096Z,84.20
2022-09-30T06:24:31.462Z,84.16
2022-09-30T06:26:59.394Z,84.25
2022-09-30T06:29:27.361Z,84.02
2022-09-30T06:31:55.381Z,84.00
2022-09-30T06:34:23.825Z,84.28
2022-09-30T06:36:51.714Z,84.15
2022-09-30T06:39:20.265Z,84.21
2022-09-30T06:41:48.220Z,84.31
2022-09-30T06:44:25.545Z,84.10
2022-09-30T06:46:54.982Z,84.00
2022-09-30T06:49:23.296Z,83.78
2022-09-30T06:51:51.727Z,83.59
2022-09-30T06:54:23.256Z,83.36
2022-09-30T06:56:54.072Z,83.52
2022-09-30T06:59:23.214Z,83.32
2022-09-30T07:01:51.488Z,83.07
2022-09-30T07:04:19.702Z,82.33
2022-09-30T07:06:47.704Z,82.32
2022-09-30T07:09:15.956Z,82.39
2022-09-30T07:11:44.565Z,82.48
2022-09-30T07:14:13.620Z,82.67
2022-09-30T07:16:41.768Z,82.48
2022-09-30T07:19:11.299Z,82.59
2022-09-30T07:21:39.301Z,82.37
2022-09-30T07:24:07.428Z,82.03
2022-09-30T07:26:35.374Z,81.97
2022-09-30T07:29:03.422Z,81.59
2022-09-30T07:31:33.579Z,81.44
2022-09-30T07:34:07.425Z,81.74
2022-09-30T07:36:38.845Z,81.51
2022-09-30T07:39:09.295Z,81.26
2022-09-30T07:41:40.253Z,81.40
2022-09-30T07:44:14.842Z,81.01
2022-09-30T07:46:44.614Z,80.67
2022-09-30T07:49:16.191Z,80.51
2022-09-30T07:51:45.626Z,80.33
2022-09-30T07:54:17.557Z,80.34
2022-09-30T07:59:40.885Z,80.00
2022-09-30T08:02:16.064Z,79.64
2022-09-30T08:04:44.913Z,79.33
2022-09-30T08:07:15.763Z,78.97
2022-09-30T08:09:44.043Z,79.05
2022-09-30T08:12:12.087Z,79.25
2022-09-30T08:14:40.261Z,79.22
2022-09-30T08:17:08.256Z,79.31
2022-09-30T08:19:36.619Z,79.00
2022-09-30T08:22:06.507Z,78.74
2022-09-30T08:24:34.652Z,78.57
2022-09-30T08:27:02.655Z,78.41
2022-09-30T08:32:19.088Z,78.83
2022-09-30T08:34:47.175Z,78.43
2022-09-30T08:37:15.317Z,78.30
2022-09-30T08:39:44.188Z,78.43
2022-09-30T08:42:41.585Z,78.34
2022-09-30T08:45:24.486Z,78.32
2022-09-30T08:48:21.700Z,78.18
2022-09-30T08:51:02.404Z,78.02
2022-09-30T08:53:35.100Z,77.80
2022-09-30T08:56:05.274Z,77.31
2022-09-30T08:58:38.782Z,77.23
2022-09-30T09:01:15.626Z,77.45
2022-09-30T09:03:45.361Z,77.84
2022-09-30T09:06:34.244Z,77.10
2022-09-30T09:09:20.642Z,77.39
2022-09-30T09:11:54.474Z,77.34
2022-09-30T09:14:43.102Z,77.10
2022-09-30T09:17:54.156Z,76.71
2022-09-30T09:20:36.789Z,76.71
2022-09-30T09:23:10.546Z,76.90
2022-09-30T09:25:39.265Z,77.15
2022-09-30T09:28:26.355Z,76.63
2022-09-30T09:30:59.182Z,75.77
2022-09-30T09:33:40.837Z,76.08
2022-09-30T09:36:37.917Z,76.27
2022-09-30T09:39:35.251Z,75.52
2022-09-30T09:42:12.561Z,75.59
2022-09-30T09:45:14.012Z,75.53
2022-09-30T09:47:45.757Z,74.67
2022-09-30T09:50:21.712Z,75.21
2022-09-30T09:53:48.505Z,74.81
2022-09-30T09:56:22.932Z,74.14
2022-09-30T09:59:19.507Z,74.42
2022-09-30T10:01:51.748Z,74.57
2022-09-30T10:04:33.259Z,74.41
2022-09-30T10:07:12.311Z,74.24
2022-09-30T10:09:42.124Z,73.78
2022-09-30T10:12:12.967Z,73.75
2022-09-30T10:14:59.908Z,73.59
2022-09-30T10:17:31.722Z,72.88
2022-09-30T10:20:17.517Z,72.73
2022-09-30T10:22:47.551Z,71.53
2022-09-30T10:25:20.863Z,71.74
2022-09-30T10:28:00.527Z,72.09
2022-09-30T10:30:49.373Z,72.06
2022-09-30T10:33:22.486Z,72.21
2022-09-30T10:35:55.425Z,72.37
2022-09-30T10:38:26.433Z,71.64
2022-09-30T10:40:54.409Z,71.85
2022-09-30T10:43:31.213Z,72.10
2022-09-30T10:46:28.278Z,72.24
2022-09-30T10:48:54.520Z,71.70
2022-09-30T10:51:34.208Z,71.63
2022-09-30T10:54:04.476Z,71.35
2022-09-30T10:56:42.323Z,70.24
2022-09-30T10:59:28.228Z,68.96
2022-09-30T11:02:06.135Z,69.28
2022-09-30T11:04:44.913Z,68.52
2022-09-30T11:07:25.550Z,68.87
2022-09-30T11:10:28.612Z,68.86
2022-09-30T11:13:37.420Z,67.56
2022-09-30T11:16:08.639Z,67.28
2022-09-30T11:18:47.522Z,66.77
2022-09-30T11:21:18.724Z,65.59
2022-09-30T11:23:53.658Z,66.35
2022-09-30T11:26:38.728Z,66.51
2022-09-30T11:29:41.547Z,67.06
2022-09-30T11:32:45.452Z,66.37
2022-09-30T11:35:47.357Z,65.92
2022-09-30T11:38:33.484Z,66.47
2022-09-30T11:41:13.579Z,66.45
2022-09-30T11:43:41.497Z,66.46
2022-09-30T11:47:03.452Z,65.49
2022-09-30T11:49:56.698Z,65.19
2022-09-30T11:52:43.933Z,65.86
2022-09-30T11:55:31.179Z,66.26
2022-09-30T11:58:39.194Z,65.39
2022-09-30T12:01:09.970Z,64.48
2022-09-30T12:03:42.778Z,64.46
2022-09-30T12:06:25.815Z,64.75
2022-09-30T12:09:00.120Z,64.26
2022-09-30T12:11:44.086Z,64.20
2022-09-30T12:14:21.080Z,63.09
2022-09-30T12:16:51.645Z,62.45
2022-09-30T12:19:26.750Z,62.64
2022-09-30T12:22:18.262Z,61.57
2022-09-30T12:24:46.564Z,60.56
2022-09-30T12:27:30.553Z,58.86
2022-09-30T12:30:20.913Z,58.79
2022-09-30T12:33:16.833Z,59.04
2022-09-30T12:35:57.101Z,58.27
2022-09-30T12:38:56.596Z,58.70
2022-09-30T12:41:40.103Z,59.79
2022-09-30T12:44:23.180Z,60.53
2022-09-30T12:46:59.905Z,60.77
2022-09-30T12:49:31.455Z,61.60
2022-09-30T12:52:05.471Z,61.98
2022-09-30T12:54:42.977Z,62.42
2022-09-30T12:57:11.259Z,61.79
2022-09-30T12:59:55.224Z,61.39
2022-09-30T13:02:54.069Z,61.37
2022-09-30T13:05:27.947Z,61.55
2022-09-30T13:08:05.018Z,61.30
2022-09-30T13:10:44.144Z,61.07
2022-09-30T13:13:25.097Z,60.72
2022-09-30T13:15:56.735Z,60.76
2022-09-30T13:18:26.965Z,61.14
2022-09-30T13:20:56.869Z,60.99
2022-09-30T13:23:46.030Z,61.17
2022-09-30T13:26:29.422Z,61.39
2022-09-30T13:29:00.612Z,61.24
2022-09-30T13:31:31.789Z,61.39
2022-09-30T13:34:02.698Z,61.45
2022-09-30T13:37:04.449Z,60.51
2022-09-30T13:39:32.354Z,60.27
2022-09-30T13:42:30.107Z,60.41
2022-09-30T13:45:13.632Z,59.86
2022-09-30T13:48:03.205Z,59.71
2022-09-30T13:50:32.838Z,58.88
2022-09-30T13:53:08.188Z,58.26
2022-09-30T13:55:42.157Z,57.59
2022-09-30T13:58:41.755Z,57.27
2022-09-30T14:01:27.715Z,57.19
2022-09-30T14:04:23.554Z,57.55
2022-09-30T14:07:26.562Z,57.69
2022-09-30T14:10:29.307Z,57.21
2022-09-30T14:13:15.838Z,57.86
2022-09-30T14:16:18.549Z,58.08
2022-09-30T14:19:10.764Z,57.26
2022-09-30T14:21:48.346Z,57.36
2022-09-30T14:24:21.812Z,58.01
2022-09-30T14:27:07.936Z,58.73
2022-09-30T14:30:15.432Z,59.21
2022-09-30T14:32:43.296Z,59.56
2022-09-30T14:35:35.967Z,59.28
2022-09-30T14:38:29.733Z,59.82
2022-09-30T14:41:06.441Z,59.96
2022-09-30T14:43:42.864Z,60.11
2022-09-30T14:46:39.054Z,60.39
2022-09-30T14:49:12.240Z,60.56
2022-09-30T14:51:43.784Z,60.86
2022-09-30T14:54:23.696Z,61.05
2022-09-30T14:56:54.837Z,61.16
2022-09-30T14:59:27.145Z,61.25
2022-09-30T15:02:00.789Z,60.92
2022-09-30T15:04:33.330Z,61.05
2022-09-30T15:07:04.244Z,61.53
2022-09-30T15:09:38.622Z,61.71
2022-09-30T15:12:19.303Z,61.89
2022-09-30T15:14:56.796Z,62.24
2022-09-30T15:17:30.839Z,62.22
2022-09-30T15:19:59.374Z,62.32
2022-09-30T15:22:30.241Z,62.42
2022-09-30T15:24:59.907Z,62.40
2022-09-30T15:27:31.410Z,62.57
2022-09-30T15:30:00.798Z,63.03
2022-09-30T15:32:33.035Z,63.43
2022-09-30T15:35:21.956Z,63.60
2022-09-30T15:37:51.907Z,63.22
2022-09-30T15:40:41.791Z,63.30
2022-09-30T15:43:15.648Z,63.56
2022-09-30T15:45:46.080Z,63.95
2022-09-30T15:48:36.133Z,64.31
2022-09-30T15:51:41.205Z,64.05
2022-09-30T15:54:15.363Z,63.89
2022-09-30T15:56:43.743Z,64.27
2022-09-30T15:59:14.073Z,64.45
2022-09-30T16:01:56.671Z,64.63
2022-09-30T16:04:26.351Z,64.96
2022-09-30T16:07:01.077Z,65.07
2022-09-30T16:09:38.416Z,65.67
2022-09-30T16:12:12.183Z,66.11
2022-09-30T16:14:51.222Z,66.66
2022-09-30T16:17:30.145Z,67.33
2022-09-30T16:20:08.379Z,68.30
2022-09-30T16:22:42.473Z,68.59
2022-09-30T16:25:28.076Z,68.41
2022-09-30T16:28:02.405Z,68.47
2022-09-30T16:30:32.382Z,68.25
2022-09-30T16:33:05.268Z,68.45
2022-09-30T16:35:33.745Z,68.69
2022-09-30T16:38:04.932Z,68.98
2022-09-30T16:40:39.429Z,69.58
2022-09-30T16:43:11.775Z,69.81
2022-09-30T16:45:41.762Z,70.16
2022-09-30T16:48:17.442Z,70.11
2022-09-30T16:51:00.899Z,70.42
2022-09-30T16:53:28.945Z,70.64
2022-09-30T16:55:57.323Z,70.72
2022-09-30T16:58:26.049Z,70.91
2022-09-30T17:00:54.087Z,71.05
2022-09-30T17:03:22.293Z,71.36
2022-09-30T17:05:53.140Z,71.50
2022-09-30T17:08:24.401Z,71.55
2022-09-30T17:10:52.425Z,71.84
2022-09-30T17:13:20.475Z,72.10
2022-09-30T17:15:50.488Z,72.61
2022-09-30T17:18:20.062Z,72.88
2022-09-30T17:20:56.026Z,72.81
2022-09-30T17:23:26.101Z,72.95
2022-09-30T17:25:54.925Z,73.05
2022-09-30T17:28:23.976Z,73.13
2022-09-30T17:30:52.593Z,72.99
2022-09-30T17:33:20.817Z,72.99
2022-09-30T17:36:02.558Z,73.20
2022-09-30T17:38:30.880Z,73.38
2022-09-30T17:41:18.596Z,73.90
2022-09-30T17:43:47.221Z,74.11
2022-09-30T17:46:20.560Z,74.17
2022-09-30T17:48:50.313Z,74.71
2022-09-30T17:51:18.562Z,74.79
2022-09-30T17:53:47.236Z,75.04
2022-09-30T17:56:19.649Z,75.07
2022-09-30T17:58:50.861Z,74.80
2022-09-30T18:01:24.250Z,74.65
2022-09-30T18:03:58.945Z,74.63
2022-09-30T18:06:30.483Z,74.48
2022-09-30T18:09:00.519Z,74.56
2022-09-30T18:11:31.499Z,74.37
2022-09-30T18:14:02.124Z,74.14
2022-09-30T18:16:33.867Z,73.91
2022-09-30T18:19:05.048Z,73.58
2022-09-30T18:21:35.700Z,73.61
2022-09-30T18:24:06.105Z,73.80
2022-09-30T18:26:36.258Z,73.72
2022-09-30T18:29:05.515Z,73.68
2022-09-30T18:31:37.270Z,73.81
2022-09-30T18:34:07.915Z,73.86
2022-09-30T18:36:38.164Z,73.83
2022-09-30T18:39:09.196Z,73.69
2022-09-30T18:41:43.134Z,73.84
2022-09-30T18:44:14.187Z,73.92
2022-09-30T18:46:44.014Z,74.02
2022-09-30T18:49:14.230Z,74.19
2022-09-30T18:51:42.531Z,74.11
2022-09-30T18:54:11.363Z,74.05
2022-09-30T18:56:39.800Z,74.03
2022-09-30T19:01:45.390Z,74.22
2022-09-30T19:04:14.209Z,74.20
2022-09-30T19:06:46.043Z,74.24
2022-09-30T19:09:16.819Z,74.36
2022-09-30T19:14:33.022Z,74.64
2022-09-30T19:17:03.174Z,74.58
2022-09-30T19:19:32.582Z,74.98
2022-09-30T19:22:04.208Z,75.04
2022-09-30T19:24:36.129Z,74.90
2022-09-30T19:27:06.592Z,74.75
2022-09-30T19:29:41.024Z,74.90
2022-09-30T19:32:10.414Z,75.00
2022-09-30T19:34:40.210Z,75.04
2022-09-30T19:37:20.875Z,75.03
2022-09-30T19:39:52.873Z,75.27
2022-09-30T19:42:21.525Z,75.21
2022-09-30T19:44:54.074Z,75.31
2022-09-30T19:47:32.211Z,75.31
2022-09-30T19:50:02.453Z,75.53
2022-09-30T19:52:30.893Z,75.64
2022-09-30T19:55:13.034Z,75.49
2022-09-30T19:57:44.605Z,75.35
2022-09-30T20:00:13.861Z,75.32
2022-09-30T20:02:48.022Z,75.39
2022-09-30T20:05:18.610Z,75.33
2022-09-30T20:07:46.881Z,75.47
2022-09-30T20:10:14.948Z,75.50
2022-09-30T20:12:45.855Z,75.56
2022-09-30T20:15:34.309Z,75.54
2022-09-30T20:18:02.441Z,75.61
2022-09-30T20:20:36.377Z,75.72
2022-09-30T20:23:04.816Z,75.51
2022-09-30T20:25:35.311Z,75.45
2022-09-30T20:28:04.967Z,75.42
2022-09-30T20:30:34.378Z,75.53
2022-09-30T20:33:02.482Z,75.52
2022-09-30T20:35:30.719Z,75.64
2022-09-30T20:37:59.065Z,75.62
2022-09-30T20:40:27.133Z,75.75
2022-09-30T20:43:01.343Z,75.72
2022-09-30T20:45:30.988Z,75.73
2022-09-30T20:47:59.124Z,75.72
2022-09-30T20:50:36.614Z,75.72
2022-09-30T20:53:07.981Z,75.83
2022-09-30T20:55:41.368Z,75.86
2022-09-30T20:58:11.068Z,75.72
2022-09-30T21:00:41.739Z,75.90
2022-09-30T21:03:13.045Z,75.94
2022-09-30T21:05:41.601Z,75.98
2022-09-30T21:08:09.623Z,76.04
2022-09-30T21:10:38.743Z,76.09
2022-09-30T21:13:11.175Z,76.03
2022-09-30T21:15:39.636Z,76.06
2022-09-30T21:18:08.340Z,76.02
2022-09-30T21:20:37.178Z,76.03
2022-09-30T21:23:05.070Z,76.22
2022-09-30T21:25:32.998Z,76.35
2022-09-30T21:28:01.277Z,76.28
2022-09-30T21:30:30.115Z,76.23
2022-09-30T21:32:58.187Z,76.07
2022-09-30T21:35:26.290Z,76.18
2022-09-30T21:37:54.330Z,76.05
2022-09-30T21:40:22.484Z,76.01
2022-09-30T21:42:50.469Z,75.88
2022-09-30T21:45:20.285Z,75.88
2022-09-30T21:47:48.212Z,75.87
2022-09-30T21:50:16.290Z,75.99
2022-09-30T21:52:44.245Z,76.03
2022-09-30T21:55:12.607Z,76.20
2022-09-30T21:57:40.551Z,76.17
2022-09-30T22:00:09.186Z,76.19
2022-09-30T22:02:42.040Z,76.15
2022-09-30T22:05:10.780Z,76.13
2022-09-30T22:07:39.240Z,75.99
2022-09-30T22:10:09.036Z,76.06
2022-09-30T22:12:37.142Z,76.16
2022-09-30T22:15:06.504Z,76.21
2022-09-30T22:17:34.511Z,76.13
2022-09-30T22:20:02.689Z,76.12
2022-09-30T22:22:30.754Z,75.90
2022-09-30T22:24:58.831Z,75.99
2022-09-30T22:27:27.176Z,76.07
2022-09-30T22:29:55.173Z,76.23
2022-09-30T22:32:23.654Z,76.28
2022-09-30T22:35:10.224Z,76.23
2022-09-30T22:37:56.887Z,76.25
2022-09-30T22:40:24.908Z,76.33
2022-09-30T22:42:53.331Z,76.45
2022-09-30T22:45:21.381Z,76.40
2022-09-30T22:47:49.450Z,76.54
2022-09-30T22:50:19.748Z,76.56
2022-09-30T22:52:49.641Z,76.77
2022-09-30T22:55:17.859Z,76.73
2022-09-30T22:57:45.833Z,76.79
2022-09-30T23:00:14.953Z,76.75
2022-09-30T23:02:43.008Z,76.78
2022-09-30T23:05:11.169Z,76.74
2022-09-30T23:07:40.814Z,76.84
2022-09-30T23:10:09.727Z,76.84
2022-09-30T23:12:37.707Z,77.12
2022-09-30T23:15:07.473Z,77.28
2022-09-30T23:17:36.025Z,77.27
2022-09-30T23:20:05.095Z,77.23
2022-09-30T23:22:33.091Z,77.11
2022-09-30T23:25:02.882Z,76.93
2022-09-30T23:27:30.869Z,76.72
2022-09-30T23:29:58.841Z,76.76
2022-09-30T23:32:26.916Z,76.81
2022-09-30T23:34:55.387Z,76.87
2022-09-30T23:37:23.373Z,77.05
2022-09-30T23:39:51.327Z,76.94
2022-09-30T23:42:19.399Z,77.00
2022-09-30T23:44:47.357Z,77.23
2022-09-30T23:47:18.303Z,77.48
2022-09-30T23:49:46.475Z,77.55
2022-09-30T23:52:15.097Z,77.51
2022-09-30T23:54:43.596Z,77.59
2022-09-30T23:57:11.868Z,77.68
2022-09-30T23:59:40.044Z,77.67
